sensor_id;sensor_type;location;lat;lon;timestamp;temperature;humidity
20081;DHT22;10200;49.232;9.222;2023-05-29T00:01:14;16.80;75.10
20081;DHT22;10200;49.232;9.222;2023-05-29T00:03:46;16.70;75.40
20081;DHT22;10200;49.232;9.222;2023-05-29T00:06:13;16.70;76.20
20081;DHT22;10200;49.232;9.222;2023-05-29T00:08:39;16.60;76.50
20081;DHT22;10200;49.232;9.222;2023-05-29T00:11:04;16.50;76.80
20081;DHT22;10200;49.232;9.222;2023-05-29T00:13:30;16.50;77.80
20081;DHT22;10200;49.232;9.222;2023-05-29T00:15:55;16.50;78.00
20081;DHT22;10200;49.232;9.222;2023-05-29T00:18:21;16.40;78.30
20081;DHT22;10200;49.232;9.222;2023-05-29T00:20:47;16.40;78.60
20081;DHT22;10200;49.232;9.222;2023-05-29T00:23:13;16.40;78.30
20081;DHT22;10200;49.232;9.222;2023-05-29T00:25:39;16.30;77.80
20081;DHT22;10200;49.232;9.222;2023-05-29T00:28:06;16.30;78.00
20081;DHT22;10200;49.232;9.222;2023-05-29T00:30:32;16.20;77.60
20081;DHT22;10200;49.232;9.222;2023-05-29T00:32:58;16.20;78.20
20081;DHT22;10200;49.232;9.222;2023-05-29T00:35:24;16.10;77.90
20081;DHT22;10200;49.232;9.222;2023-05-29T00:37:49;16.10;78.20
20081;DHT22;10200;49.232;9.222;2023-05-29T00:40:15;16.10;78.50
20081;DHT22;10200;49.232;9.222;2023-05-29T00:42:41;16.10;78.70
20081;DHT22;10200;49.232;9.222;2023-05-29T00:45:07;16.00;79.70
20081;DHT22;10200;49.232;9.222;2023-05-29T00:47:33;15.90;79.50
20081;DHT22;10200;49.232;9.222;2023-05-29T00:49:59;15.90;80.00
20081;DHT22;10200;49.232;9.222;2023-05-29T00:52:26;15.80;80.40
20081;DHT22;10200;49.232;9.222;2023-05-29T00:54:52;15.80;80.50
20081;DHT22;10200;49.232;9.222;2023-05-29T00:57:18;15.80;80.40
20081;DHT22;10200;49.232;9.222;2023-05-29T00:59:45;15.80;80.50
20081;DHT22;10200;49.232;9.222;2023-05-29T01:02:12;15.70;80.40
20081;DHT22;10200;49.232;9.222;2023-05-29T01:04:39;15.70;80.70
20081;DHT22;10200;49.232;9.222;2023-05-29T01:07:05;15.70;80.90
20081;DHT22;10200;49.232;9.222;2023-05-29T01:09:32;15.60;80.70
20081;DHT22;10200;49.232;9.222;2023-05-29T01:15:18;15.60;80.90
20081;DHT22;10200;49.232;9.222;2023-05-29T01:18:31;15.60;80.90
20081;DHT22;10200;49.232;9.222;2023-05-29T01:26:23;15.40;81.20
20081;DHT22;10200;49.232;9.222;2023-05-29T01:28:52;15.40;81.60
20081;DHT22;10200;49.232;9.222;2023-05-29T01:31:22;15.40;81.70
20081;DHT22;10200;49.232;9.222;2023-05-29T01:33:56;15.30;81.80
20081;DHT22;10200;49.232;9.222;2023-05-29T01:36:23;15.30;81.80
20081;DHT22;10200;49.232;9.222;2023-05-29T01:38:50;15.30;82.50
20081;DHT22;10200;49.232;9.222;2023-05-29T01:41:17;15.30;82.40
20081;DHT22;10200;49.232;9.222;2023-05-29T01:43:44;15.30;82.30
20081;DHT22;10200;49.232;9.222;2023-05-29T01:46:12;15.30;82.30
20081;DHT22;10200;49.232;9.222;2023-05-29T01:48:38;15.30;82.50
20081;DHT22;10200;49.232;9.222;2023-05-29T01:51:04;15.30;82.50
20081;DHT22;10200;49.232;9.222;2023-05-29T01:53:30;15.30;82.70
20081;DHT22;10200;49.232;9.222;2023-05-29T01:55:55;15.30;82.20
20081;DHT22;10200;49.232;9.222;2023-05-29T01:58:21;15.30;81.80
20081;DHT22;10200;49.232;9.222;2023-05-29T02:00:48;15.30;81.90
20081;DHT22;10200;49.232;9.222;2023-05-29T02:03:14;15.30;81.80
20081;DHT22;10200;49.232;9.222;2023-05-29T02:05:40;15.30;81.80
20081;DHT22;10200;49.232;9.222;2023-05-29T02:08:05;15.20;81.40
20081;DHT22;10200;49.232;9.222;2023-05-29T02:10:31;15.20;81.60
20081;DHT22;10200;49.232;9.222;2023-05-29T02:12:57;15.20;81.60
20081;DHT22;10200;49.232;9.222;2023-05-29T02:15:23;15.20;81.70
20081;DHT22;10200;49.232;9.222;2023-05-29T02:17:49;15.20;81.90
20081;DHT22;10200;49.232;9.222;2023-05-29T02:20:15;15.20;82.00
20081;DHT22;10200;49.232;9.222;2023-05-29T02:22:41;15.20;82.20
20081;DHT22;10200;49.232;9.222;2023-05-29T02:25:07;15.10;82.40
20081;DHT22;10200;49.232;9.222;2023-05-29T02:27:33;15.10;82.50
20081;DHT22;10200;49.232;9.222;2023-05-29T02:29:58;15.10;82.80
20081;DHT22;10200;49.232;9.222;2023-05-29T02:32:24;15.10;82.80
20081;DHT22;10200;49.232;9.222;2023-05-29T02:34:51;15.00;83.20
20081;DHT22;10200;49.232;9.222;2023-05-29T02:37:18;15.10;83.40
20081;DHT22;10200;49.232;9.222;2023-05-29T02:39:43;15.00;83.30
20081;DHT22;10200;49.232;9.222;2023-05-29T02:42:09;15.00;83.30
20081;DHT22;10200;49.232;9.222;2023-05-29T02:44:35;14.90;83.80
20081;DHT22;10200;49.232;9.222;2023-05-29T02:47:00;14.90;84.60
20081;DHT22;10200;49.232;9.222;2023-05-29T02:49:26;14.80;84.60
20081;DHT22;10200;49.232;9.222;2023-05-29T02:51:52;14.70;85.40
20081;DHT22;10200;49.232;9.222;2023-05-29T02:54:25;14.60;86.20
20081;DHT22;10200;49.232;9.222;2023-05-29T02:56:51;14.50;87.20
20081;DHT22;10200;49.232;9.222;2023-05-29T02:59:17;14.40;87.60
20081;DHT22;10200;49.232;9.222;2023-05-29T03:01:43;14.40;88.30
20081;DHT22;10200;49.232;9.222;2023-05-29T03:04:11;14.40;88.90
20081;DHT22;10200;49.232;9.222;2023-05-29T03:06:37;14.40;89.90
20081;DHT22;10200;49.232;9.222;2023-05-29T03:09:03;14.30;88.90
20081;DHT22;10200;49.232;9.222;2023-05-29T03:11:31;14.30;89.40
20081;DHT22;10200;49.232;9.222;2023-05-29T03:13:56;14.30;88.70
20081;DHT22;10200;49.232;9.222;2023-05-29T03:16:22;14.20;88.80
20081;DHT22;10200;49.232;9.222;2023-05-29T03:18:48;14.20;88.70
20081;DHT22;10200;49.232;9.222;2023-05-29T03:21:13;14.20;88.60
20081;DHT22;10200;49.232;9.222;2023-05-29T03:23:39;14.20;88.80
20081;DHT22;10200;49.232;9.222;2023-05-29T03:26:05;14.20;89.00
20081;DHT22;10200;49.232;9.222;2023-05-29T03:28:31;14.20;88.70
20081;DHT22;10200;49.232;9.222;2023-05-29T03:30:57;14.20;89.40
20081;DHT22;10200;49.232;9.222;2023-05-29T03:33:23;14.20;89.80
20081;DHT22;10200;49.232;9.222;2023-05-29T03:35:48;14.20;89.50
20081;DHT22;10200;49.232;9.222;2023-05-29T03:38:14;14.20;89.50
20081;DHT22;10200;49.232;9.222;2023-05-29T03:40:39;14.20;89.20
20081;DHT22;10200;49.232;9.222;2023-05-29T03:43:05;14.20;88.60
20081;DHT22;10200;49.232;9.222;2023-05-29T03:45:31;14.20;88.90
20081;DHT22;10200;49.232;9.222;2023-05-29T03:47:56;14.30;88.70
20081;DHT22;10200;49.232;9.222;2023-05-29T03:50:22;14.30;88.40
20081;DHT22;10200;49.232;9.222;2023-05-29T03:52:47;14.30;88.00
20081;DHT22;10200;49.232;9.222;2023-05-29T03:55:13;14.40;87.90
20081;DHT22;10200;49.232;9.222;2023-05-29T03:57:40;14.40;87.40
20081;DHT22;10200;49.232;9.222;2023-05-29T04:00:08;14.40;87.40
20081;DHT22;10200;49.232;9.222;2023-05-29T04:02:35;14.50;87.50
20081;DHT22;10200;49.232;9.222;2023-05-29T04:05:01;14.50;86.80
20081;DHT22;10200;49.232;9.222;2023-05-29T04:07:27;14.60;86.30
20081;DHT22;10200;49.232;9.222;2023-05-29T04:09:52;14.60;86.40
20081;DHT22;10200;49.232;9.222;2023-05-29T04:12:18;14.60;86.40
20081;DHT22;10200;49.232;9.222;2023-05-29T04:14:43;14.60;86.20
20081;DHT22;10200;49.232;9.222;2023-05-29T04:17:09;14.60;86.60
20081;DHT22;10200;49.232;9.222;2023-05-29T04:19:35;14.60;86.20
20081;DHT22;10200;49.232;9.222;2023-05-29T04:22:01;14.60;86.20
20081;DHT22;10200;49.232;9.222;2023-05-29T04:24:26;14.70;85.80
20081;DHT22;10200;49.232;9.222;2023-05-29T04:26:52;14.70;85.70
20081;DHT22;10200;49.232;9.222;2023-05-29T04:29:17;14.80;85.10
20081;DHT22;10200;49.232;9.222;2023-05-29T04:31:43;14.80;85.40
20081;DHT22;10200;49.232;9.222;2023-05-29T04:34:09;14.90;85.10
20081;DHT22;10200;49.232;9.222;2023-05-29T04:36:35;15.00;85.50
20081;DHT22;10200;49.232;9.222;2023-05-29T04:39:04;15.20;84.30
20081;DHT22;10200;49.232;9.222;2023-05-29T04:41:30;15.70;84.10
20081;DHT22;10200;49.232;9.222;2023-05-29T04:43:57;16.60;83.00
20081;DHT22;10200;49.232;9.222;2023-05-29T04:46:24;17.70;78.90
20081;DHT22;10200;49.232;9.222;2023-05-29T04:48:51;18.80;74.80
20081;DHT22;10200;49.232;9.222;2023-05-29T04:51:20;19.80;70.50
20081;DHT22;10200;49.232;9.222;2023-05-29T04:53:47;20.40;68.10
20081;DHT22;10200;49.232;9.222;2023-05-29T04:56:13;21.00;66.40
20081;DHT22;10200;49.232;9.222;2023-05-29T04:58:40;21.30;63.60
20081;DHT22;10200;49.232;9.222;2023-05-29T05:01:06;21.40;61.80
20081;DHT22;10200;49.232;9.222;2023-05-29T05:03:33;21.20;59.60
20081;DHT22;10200;49.232;9.222;2023-05-29T05:06:03;21.10;59.80
20081;DHT22;10200;49.232;9.222;2023-05-29T05:08:30;20.90;59.30
20081;DHT22;10200;49.232;9.222;2023-05-29T05:10:56;20.70;58.70
20081;DHT22;10200;49.232;9.222;2023-05-29T05:13:22;20.30;58.60
20081;DHT22;10200;49.232;9.222;2023-05-29T05:15:48;20.20;59.30
20081;DHT22;10200;49.232;9.222;2023-05-29T05:18:13;19.90;59.30
20081;DHT22;10200;49.232;9.222;2023-05-29T05:20:39;19.80;59.80
20081;DHT22;10200;49.232;9.222;2023-05-29T05:23:05;19.70;60.40
20081;DHT22;10200;49.232;9.222;2023-05-29T05:25:30;19.70;60.90
20081;DHT22;10200;49.232;9.222;2023-05-29T05:27:56;19.70;61.20
20081;DHT22;10200;49.232;9.222;2023-05-29T05:30:22;19.80;61.70
20081;DHT22;10200;49.232;9.222;2023-05-29T05:32:47;19.80;60.70
20081;DHT22;10200;49.232;9.222;2023-05-29T05:35:13;19.80;60.40
20081;DHT22;10200;49.232;9.222;2023-05-29T05:37:39;19.70;60.30
20081;DHT22;10200;49.232;9.222;2023-05-29T05:40:05;19.80;60.60
20081;DHT22;10200;49.232;9.222;2023-05-29T05:42:32;19.80;61.00
20081;DHT22;10200;49.232;9.222;2023-05-29T05:44:58;19.90;60.60
20081;DHT22;10200;49.232;9.222;2023-05-29T05:47:23;20.00;60.90
20081;DHT22;10200;49.232;9.222;2023-05-29T05:49:49;20.10;60.90
20081;DHT22;10200;49.232;9.222;2023-05-29T05:52:18;20.30;59.40
20081;DHT22;10200;49.232;9.222;2023-05-29T05:54:43;20.50;60.00
20081;DHT22;10200;49.232;9.222;2023-05-29T05:57:10;20.60;59.80
20081;DHT22;10200;49.232;9.222;2023-05-29T05:59:36;20.90;58.70
20081;DHT22;10200;49.232;9.222;2023-05-29T06:02:01;21.00;58.10
20081;DHT22;10200;49.232;9.222;2023-05-29T06:04:29;21.20;57.90
20081;DHT22;10200;49.232;9.222;2023-05-29T06:06:55;21.40;58.60
20081;DHT22;10200;49.232;9.222;2023-05-29T06:09:21;21.60;57.00
20081;DHT22;10200;49.232;9.222;2023-05-29T06:11:46;21.80;57.40
20081;DHT22;10200;49.232;9.222;2023-05-29T06:14:13;21.90;56.50
20081;DHT22;10200;49.232;9.222;2023-05-29T06:16:39;22.20;56.50
20081;DHT22;10200;49.232;9.222;2023-05-29T06:19:04;22.60;55.80
20081;DHT22;10200;49.232;9.222;2023-05-29T06:21:31;22.80;54.60
20081;DHT22;10200;49.232;9.222;2023-05-29T06:23:57;22.90;54.40
20081;DHT22;10200;49.232;9.222;2023-05-29T06:26:23;23.10;54.60
20081;DHT22;10200;49.232;9.222;2023-05-29T06:28:50;23.40;54.00
20081;DHT22;10200;49.232;9.222;2023-05-29T06:31:16;23.80;52.50
20081;DHT22;10200;49.232;9.222;2023-05-29T06:33:42;23.60;51.40
20081;DHT22;10200;49.232;9.222;2023-05-29T06:36:08;23.60;51.80
20081;DHT22;10200;49.232;9.222;2023-05-29T06:38:33;23.60;51.60
20081;DHT22;10200;49.232;9.222;2023-05-29T06:40:59;23.70;51.60
20081;DHT22;10200;49.232;9.222;2023-05-29T06:43:25;24.00;52.10
20081;DHT22;10200;49.232;9.222;2023-05-29T06:45:51;24.30;51.20
20081;DHT22;10200;49.232;9.222;2023-05-29T06:48:16;24.40;50.10
20081;DHT22;10200;49.232;9.222;2023-05-29T06:50:42;24.50;50.50
20081;DHT22;10200;49.232;9.222;2023-05-29T06:53:07;24.70;50.40
20081;DHT22;10200;49.232;9.222;2023-05-29T06:55:33;24.70;48.90
20081;DHT22;10200;49.232;9.222;2023-05-29T06:57:59;24.60;49.50
20081;DHT22;10200;49.232;9.222;2023-05-29T07:00:24;24.80;50.00
20081;DHT22;10200;49.232;9.222;2023-05-29T07:02:50;24.70;49.30
20081;DHT22;10200;49.232;9.222;2023-05-29T07:05:16;24.80;49.50
20081;DHT22;10200;49.232;9.222;2023-05-29T07:07:42;24.90;49.10
20081;DHT22;10200;49.232;9.222;2023-05-29T07:10:08;24.80;48.30
20081;DHT22;10200;49.232;9.222;2023-05-29T07:12:34;24.70;49.00
20081;DHT22;10200;49.232;9.222;2023-05-29T07:14:59;24.90;49.60
20081;DHT22;10200;49.232;9.222;2023-05-29T07:17:25;24.90;48.40
20081;DHT22;10200;49.232;9.222;2023-05-29T07:19:50;24.70;47.70
20081;DHT22;10200;49.232;9.222;2023-05-29T07:22:16;24.60;48.20
20081;DHT22;10200;49.232;9.222;2023-05-29T07:24:42;24.70;48.30
20081;DHT22;10200;49.232;9.222;2023-05-29T07:27:07;24.60;48.10
20081;DHT22;10200;49.232;9.222;2023-05-29T07:29:33;24.70;48.50
20081;DHT22;10200;49.232;9.222;2023-05-29T07:31:58;24.80;49.10
20081;DHT22;10200;49.232;9.222;2023-05-29T07:34:24;24.90;47.50
20081;DHT22;10200;49.232;9.222;2023-05-29T07:37:04;24.90;48.00
20081;DHT22;10200;49.232;9.222;2023-05-29T07:39:31;25.10;47.50
20081;DHT22;10200;49.232;9.222;2023-05-29T07:41:56;25.30;47.90
20081;DHT22;10200;49.232;9.222;2023-05-29T07:44:22;25.30;46.70
20081;DHT22;10200;49.232;9.222;2023-05-29T07:46:48;25.50;47.20
20081;DHT22;10200;49.232;9.222;2023-05-29T07:49:14;25.80;47.00
20081;DHT22;10200;49.232;9.222;2023-05-29T07:51:40;26.00;46.70
20081;DHT22;10200;49.232;9.222;2023-05-29T07:54:06;26.20;45.50
20081;DHT22;10200;49.232;9.222;2023-05-29T07:56:32;26.50;46.40
20081;DHT22;10200;49.232;9.222;2023-05-29T07:58:59;26.50;45.70
20081;DHT22;10200;49.232;9.222;2023-05-29T08:01:25;26.90;45.60
20081;DHT22;10200;49.232;9.222;2023-05-29T08:03:51;26.90;45.30
20081;DHT22;10200;49.232;9.222;2023-05-29T08:06:17;26.90;45.10
20081;DHT22;10200;49.232;9.222;2023-05-29T08:08:43;27.20;44.80
20081;DHT22;10200;49.232;9.222;2023-05-29T08:11:09;27.40;44.50
20081;DHT22;10200;49.232;9.222;2023-05-29T08:13:35;27.50;43.90
20081;DHT22;10200;49.232;9.222;2023-05-29T08:16:01;27.40;44.40
20081;DHT22;10200;49.232;9.222;2023-05-29T08:18:26;27.80;44.90
20081;DHT22;10200;49.232;9.222;2023-05-29T08:20:52;27.80;43.70
20081;DHT22;10200;49.232;9.222;2023-05-29T08:23:18;27.90;44.00
20081;DHT22;10200;49.232;9.222;2023-05-29T08:25:44;28.20;43.90
20081;DHT22;10200;49.232;9.222;2023-05-29T08:28:10;28.30;43.10
20081;DHT22;10200;49.232;9.222;2023-05-29T08:30:36;28.30;42.60
20081;DHT22;10200;49.232;9.222;2023-05-29T08:33:02;28.10;42.50
20081;DHT22;10200;49.232;9.222;2023-05-29T08:35:28;28.20;42.80
20081;DHT22;10200;49.232;9.222;2023-05-29T08:37:54;28.20;43.20
20081;DHT22;10200;49.232;9.222;2023-05-29T08:40:20;28.10;42.50
20081;DHT22;10200;49.232;9.222;2023-05-29T08:42:50;28.00;43.50
20081;DHT22;10200;49.232;9.222;2023-05-29T08:45:18;28.10;42.70
20081;DHT22;10200;49.232;9.222;2023-05-29T08:47:44;28.10;43.70
20081;DHT22;10200;49.232;9.222;2023-05-29T08:50:13;28.20;43.10
20081;DHT22;10200;49.232;9.222;2023-05-29T08:52:40;28.00;42.60
20081;DHT22;10200;49.232;9.222;2023-05-29T08:55:06;28.00;43.60
20081;DHT22;10200;49.232;9.222;2023-05-29T08:57:32;27.90;43.40
20081;DHT22;10200;49.232;9.222;2023-05-29T09:00:00;27.90;44.10
20081;DHT22;10200;49.232;9.222;2023-05-29T09:02:26;28.10;43.60
20081;DHT22;10200;49.232;9.222;2023-05-29T09:04:52;28.10;43.10
20081;DHT22;10200;49.232;9.222;2023-05-29T09:07:20;28.00;42.40
20081;DHT22;10200;49.232;9.222;2023-05-29T09:09:47;28.00;42.70
20081;DHT22;10200;49.232;9.222;2023-05-29T09:12:14;28.10;43.50
20081;DHT22;10200;49.232;9.222;2023-05-29T09:14:44;28.50;43.20
20081;DHT22;10200;49.232;9.222;2023-05-29T09:17:11;28.80;42.20
20081;DHT22;10200;49.232;9.222;2023-05-29T09:19:38;28.90;41.90
20081;DHT22;10200;49.232;9.222;2023-05-29T09:22:10;28.90;41.50
20081;DHT22;10200;49.232;9.222;2023-05-29T09:24:37;29.00;40.30
20081;DHT22;10200;49.232;9.222;2023-05-29T09:27:06;29.10;41.40
20081;DHT22;10200;49.232;9.222;2023-05-29T09:29:44;29.30;40.70
20081;DHT22;10200;49.232;9.222;2023-05-29T09:32:13;29.30;40.10
20081;DHT22;10200;49.232;9.222;2023-05-29T09:34:39;29.20;39.70
20081;DHT22;10200;49.232;9.222;2023-05-29T09:37:07;29.30;40.60
20081;DHT22;10200;49.232;9.222;2023-05-29T09:39:49;29.30;39.70
20081;DHT22;10200;49.232;9.222;2023-05-29T09:42:24;29.30;39.70
20081;DHT22;10200;49.232;9.222;2023-05-29T09:44:50;29.20;40.00
20081;DHT22;10200;49.232;9.222;2023-05-29T09:47:20;29.20;38.80
20081;DHT22;10200;49.232;9.222;2023-05-29T09:49:46;29.00;39.00
20081;DHT22;10200;49.232;9.222;2023-05-29T09:52:12;28.70;38.10
20081;DHT22;10200;49.232;9.222;2023-05-29T09:54:42;28.50;38.20
20081;DHT22;10200;49.232;9.222;2023-05-29T09:57:14;28.40;39.00
20081;DHT22;10200;49.232;9.222;2023-05-29T09:59:43;28.30;39.40
20081;DHT22;10200;49.232;9.222;2023-05-29T10:02:11;28.50;39.70
20081;DHT22;10200;49.232;9.222;2023-05-29T10:04:39;28.70;39.30
20081;DHT22;10200;49.232;9.222;2023-05-29T10:07:09;28.80;39.70
20081;DHT22;10200;49.232;9.222;2023-05-29T10:09:42;28.80;38.60
20081;DHT22;10200;49.232;9.222;2023-05-29T10:12:11;28.80;39.10
20081;DHT22;10200;49.232;9.222;2023-05-29T10:14:37;28.90;39.80
20081;DHT22;10200;49.232;9.222;2023-05-29T10:17:07;29.10;39.40
20081;DHT22;10200;49.232;9.222;2023-05-29T10:19:36;29.30;39.00
20081;DHT22;10200;49.232;9.222;2023-05-29T10:22:04;29.30;37.60
20081;DHT22;10200;49.232;9.222;2023-05-29T10:24:32;29.40;37.10
20081;DHT22;10200;49.232;9.222;2023-05-29T10:26:58;29.30;36.40
20081;DHT22;10200;49.232;9.222;2023-05-29T10:29:47;29.20;36.60
20081;DHT22;10200;49.232;9.222;2023-05-29T10:32:26;29.30;36.20
20081;DHT22;10200;49.232;9.222;2023-05-29T10:35:12;29.20;36.30
20081;DHT22;10200;49.232;9.222;2023-05-29T10:37:44;29.10;35.80
20081;DHT22;10200;49.232;9.222;2023-05-29T10:40:11;29.00;36.70
20081;DHT22;10200;49.232;9.222;2023-05-29T10:42:51;29.00;36.40
20081;DHT22;10200;49.232;9.222;2023-05-29T10:50:40;29.00;35.60
20081;DHT22;10200;49.232;9.222;2023-05-29T10:53:10;29.00;36.50
20081;DHT22;10200;49.232;9.222;2023-05-29T10:55:40;29.00;36.70
20081;DHT22;10200;49.232;9.222;2023-05-29T11:00:32;29.00;35.60
20081;DHT22;10200;49.232;9.222;2023-05-29T11:03:03;29.10;35.80
20081;DHT22;10200;49.232;9.222;2023-05-29T11:05:29;29.10;36.10
20081;DHT22;10200;49.232;9.222;2023-05-29T11:07:59;29.10;36.50
20081;DHT22;10200;49.232;9.222;2023-05-29T11:13:07;29.20;35.80
20081;DHT22;10200;49.232;9.222;2023-05-29T11:15:33;29.20;35.60
20081;DHT22;10200;49.232;9.222;2023-05-29T11:18:08;29.20;36.00
20081;DHT22;10200;49.232;9.222;2023-05-29T11:20:43;29.00;35.80
20081;DHT22;10200;49.232;9.222;2023-05-29T11:23:15;28.90;36.00
20081;DHT22;10200;49.232;9.222;2023-05-29T11:25:44;28.90;35.90
20081;DHT22;10200;49.232;9.222;2023-05-29T11:28:11;28.80;35.90
20081;DHT22;10200;49.232;9.222;2023-05-29T11:30:43;28.70;36.40
20081;DHT22;10200;49.232;9.222;2023-05-29T11:33:32;28.70;36.80
20081;DHT22;10200;49.232;9.222;2023-05-29T11:36:00;28.70;37.30
20081;DHT22;10200;49.232;9.222;2023-05-29T11:38:27;28.70;35.80
20081;DHT22;10200;49.232;9.222;2023-05-29T11:40:56;28.60;36.30
20081;DHT22;10200;49.232;9.222;2023-05-29T11:43:23;28.70;37.40
20081;DHT22;10200;49.232;9.222;2023-05-29T11:45:49;28.70;36.20
20081;DHT22;10200;49.232;9.222;2023-05-29T11:48:15;28.70;36.70
20081;DHT22;10200;49.232;9.222;2023-05-29T11:50:41;28.60;36.70
20081;DHT22;10200;49.232;9.222;2023-05-29T11:53:07;28.70;37.20
20081;DHT22;10200;49.232;9.222;2023-05-29T11:55:35;28.80;37.10
20081;DHT22;10200;49.232;9.222;2023-05-29T11:58:03;28.90;37.80
20081;DHT22;10200;49.232;9.222;2023-05-29T12:00:36;28.90;36.60
20081;DHT22;10200;49.232;9.222;2023-05-29T12:03:03;28.90;36.20
20081;DHT22;10200;49.232;9.222;2023-05-29T12:05:30;28.90;36.50
20081;DHT22;10200;49.232;9.222;2023-05-29T12:07:57;28.90;36.70
20081;DHT22;10200;49.232;9.222;2023-05-29T12:10:23;28.80;36.90
20081;DHT22;10200;49.232;9.222;2023-05-29T12:12:55;28.90;36.90
20081;DHT22;10200;49.232;9.222;2023-05-29T12:15:21;28.90;36.80
20081;DHT22;10200;49.232;9.222;2023-05-29T12:17:51;28.80;36.50
20081;DHT22;10200;49.232;9.222;2023-05-29T12:20:18;28.80;36.60
20081;DHT22;10200;49.232;9.222;2023-05-29T12:22:44;28.70;36.60
20081;DHT22;10200;49.232;9.222;2023-05-29T12:25:17;28.60;37.00
20081;DHT22;10200;49.232;9.222;2023-05-29T12:27:45;28.40;36.90
20081;DHT22;10200;49.232;9.222;2023-05-29T12:30:22;28.40;37.60
20081;DHT22;10200;49.232;9.222;2023-05-29T12:32:52;28.50;37.70
20081;DHT22;10200;49.232;9.222;2023-05-29T12:35:23;28.60;37.60
20081;DHT22;10200;49.232;9.222;2023-05-29T12:38:04;28.70;37.60
20081;DHT22;10200;49.232;9.222;2023-05-29T12:40:31;28.80;37.70
20081;DHT22;10200;49.232;9.222;2023-05-29T12:43:04;29.10;37.60
20081;DHT22;10200;49.232;9.222;2023-05-29T12:45:31;29.20;37.30
20081;DHT22;10200;49.232;9.222;2023-05-29T12:48:00;29.20;36.90
20081;DHT22;10200;49.232;9.222;2023-05-29T12:50:30;29.40;36.70
20081;DHT22;10200;49.232;9.222;2023-05-29T12:53:08;29.30;36.20
20081;DHT22;10200;49.232;9.222;2023-05-29T12:55:36;29.30;35.40
20081;DHT22;10200;49.232;9.222;2023-05-29T12:58:14;29.30;35.10
20081;DHT22;10200;49.232;9.222;2023-05-29T13:00:41;29.20;35.00
20081;DHT22;10200;49.232;9.222;2023-05-29T13:03:08;29.10;34.70
20081;DHT22;10200;49.232;9.222;2023-05-29T13:05:36;29.10;35.50
20081;DHT22;10200;49.232;9.222;2023-05-29T13:08:02;29.20;35.70
20081;DHT22;10200;49.232;9.222;2023-05-29T13:10:30;29.10;35.30
20081;DHT22;10200;49.232;9.222;2023-05-29T13:12:55;29.30;35.40
20081;DHT22;10200;49.232;9.222;2023-05-29T13:15:25;29.30;34.60
20081;DHT22;10200;49.232;9.222;2023-05-29T13:17:52;29.30;34.20
20081;DHT22;10200;49.232;9.222;2023-05-29T13:20:18;29.20;34.00
20081;DHT22;10200;49.232;9.222;2023-05-29T13:22:47;29.20;34.70
20081;DHT22;10200;49.232;9.222;2023-05-29T13:25:14;29.20;34.20
20081;DHT22;10200;49.232;9.222;2023-05-29T13:27:43;29.20;34.30
20081;DHT22;10200;49.232;9.222;2023-05-29T13:30:09;29.30;35.10
20081;DHT22;10200;49.232;9.222;2023-05-29T13:32:36;29.20;34.50
20081;DHT22;10200;49.232;9.222;2023-05-29T13:35:05;29.20;34.10
20081;DHT22;10200;49.232;9.222;2023-05-29T13:37:31;29.10;34.40
20081;DHT22;10200;49.232;9.222;2023-05-29T13:39:57;29.20;34.50
20081;DHT22;10200;49.232;9.222;2023-05-29T13:42:22;29.10;34.80
20081;DHT22;10200;49.232;9.222;2023-05-29T13:44:49;29.10;34.50
20081;DHT22;10200;49.232;9.222;2023-05-29T13:47:15;28.80;34.60
20081;DHT22;10200;49.232;9.222;2023-05-29T13:49:41;28.70;35.30
20081;DHT22;10200;49.232;9.222;2023-05-29T13:52:06;28.70;35.60
20081;DHT22;10200;49.232;9.222;2023-05-29T13:54:32;28.80;35.70
20081;DHT22;10200;49.232;9.222;2023-05-29T13:57:05;28.80;35.30
20081;DHT22;10200;49.232;9.222;2023-05-29T13:59:34;28.80;35.00
20081;DHT22;10200;49.232;9.222;2023-05-29T14:02:01;28.90;35.40
20081;DHT22;10200;49.232;9.222;2023-05-29T14:04:29;29.00;35.20
20081;DHT22;10200;49.232;9.222;2023-05-29T14:06:55;29.00;34.30
20081;DHT22;10200;49.232;9.222;2023-05-29T14:09:22;29.00;34.00
20081;DHT22;10200;49.232;9.222;2023-05-29T14:11:53;28.90;34.00
20081;DHT22;10200;49.232;9.222;2023-05-29T14:14:19;28.80;34.40
20081;DHT22;10200;49.232;9.222;2023-05-29T14:16:45;28.80;35.10
20081;DHT22;10200;49.232;9.222;2023-05-29T14:19:11;28.80;35.20
20081;DHT22;10200;49.232;9.222;2023-05-29T14:21:36;28.90;35.50
20081;DHT22;10200;49.232;9.222;2023-05-29T14:24:02;28.90;35.30
20081;DHT22;10200;49.232;9.222;2023-05-29T14:26:28;28.80;35.30
20081;DHT22;10200;49.232;9.222;2023-05-29T14:28:54;28.70;35.50
20081;DHT22;10200;49.232;9.222;2023-05-29T14:31:20;28.60;35.40
20081;DHT22;10200;49.232;9.222;2023-05-29T14:33:46;28.50;35.60
20081;DHT22;10200;49.232;9.222;2023-05-29T14:36:12;28.50;35.10
20081;DHT22;10200;49.232;9.222;2023-05-29T14:38:38;28.50;35.60
20081;DHT22;10200;49.232;9.222;2023-05-29T14:41:03;28.60;36.10
20081;DHT22;10200;49.232;9.222;2023-05-29T14:43:29;28.60;36.50
20081;DHT22;10200;49.232;9.222;2023-05-29T14:45:55;28.50;35.70
20081;DHT22;10200;49.232;9.222;2023-05-29T14:48:20;28.50;35.60
20081;DHT22;10200;49.232;9.222;2023-05-29T14:50:46;28.40;36.60
20081;DHT22;10200;49.232;9.222;2023-05-29T14:53:12;28.30;35.40
20081;DHT22;10200;49.232;9.222;2023-05-29T14:55:38;28.40;36.00
20081;DHT22;10200;49.232;9.222;2023-05-29T14:58:04;28.50;36.00
20081;DHT22;10200;49.232;9.222;2023-05-29T15:00:30;28.60;35.50
20081;DHT22;10200;49.232;9.222;2023-05-29T15:02:56;28.50;35.10
20081;DHT22;10200;49.232;9.222;2023-05-29T15:05:27;28.60;35.80
20081;DHT22;10200;49.232;9.222;2023-05-29T15:07:54;28.50;35.50
20081;DHT22;10200;49.232;9.222;2023-05-29T15:10:25;28.50;35.90
20081;DHT22;10200;49.232;9.222;2023-05-29T15:12:52;28.60;36.60
20081;DHT22;10200;49.232;9.222;2023-05-29T15:15:23;28.60;35.80
20081;DHT22;10200;49.232;9.222;2023-05-29T15:17:49;28.60;36.10
20081;DHT22;10200;49.232;9.222;2023-05-29T15:20:19;28.60;36.70
20081;DHT22;10200;49.232;9.222;2023-05-29T15:22:45;28.60;35.60
20081;DHT22;10200;49.232;9.222;2023-05-29T15:25:11;28.60;35.90
20081;DHT22;10200;49.232;9.222;2023-05-29T15:27:36;28.50;36.60
20081;DHT22;10200;49.232;9.222;2023-05-29T15:30:16;28.50;36.30
20081;DHT22;10200;49.232;9.222;2023-05-29T15:32:43;28.40;36.10
20081;DHT22;10200;49.232;9.222;2023-05-29T15:35:10;28.40;36.60
20081;DHT22;10200;49.232;9.222;2023-05-29T15:37:37;28.30;36.10
20081;DHT22;10200;49.232;9.222;2023-05-29T15:40:03;28.30;35.80
20081;DHT22;10200;49.232;9.222;2023-05-29T15:42:29;28.20;35.60
20081;DHT22;10200;49.232;9.222;2023-05-29T15:44:55;28.30;35.90
20081;DHT22;10200;49.232;9.222;2023-05-29T15:47:21;28.40;35.80
20081;DHT22;10200;49.232;9.222;2023-05-29T15:49:46;28.40;35.60